createdAt,value
2023-01-06T00:01:13.056Z,5.22
2023-01-06T00:03:40.694Z,5.82
2023-01-06T00:06:10.691Z,4.53
2023-01-06T00:08:40.385Z,4.80
2023-01-06T00:11:09.006Z,3.92
2023-01-06T00:13:36.822Z,4.65
2023-01-06T00:16:07.514Z,4.68
2023-01-06T00:18:35.225Z,4.82
2023-01-06T00:21:03.313Z,4.90
2023-01-06T00:23:30.962Z,5.55
2023-01-06T00:25:58.598Z,5.07
2023-01-06T00:28:26.093Z,4.90
2023-01-06T00:30:54.214Z,5.38
2023-01-06T00:33:23.747Z,5.30
2023-01-06T00:35:51.567Z,5.00
2023-01-06T00:38:20.365Z,4.95
2023-01-06T00:40:48.218Z,5.63
2023-01-06T00:43:15.899Z,4.70
2023-01-06T00:45:43.577Z,5.50
2023-01-06T00:48:11.348Z,5.53
2023-01-06T00:50:40.287Z,5.28
2023-01-06T00:53:08.248Z,5.20
2023-01-06T00:55:36.486Z,4.93
2023-01-06T00:58:04.043Z,5.40
2023-01-06T01:00:31.926Z,6.15
2023-01-06T01:02:59.931Z,5.63
2023-01-06T01:05:27.836Z,5.25
2023-01-06T01:07:56.768Z,6.80
2023-01-06T01:10:24.806Z,5.90
2023-01-06T01:12:53.910Z,5.95
2023-01-06T01:15:22.486Z,6.20
2023-01-06T01:17:50.088Z,6.00
2023-01-06T01:20:17.731Z,5.38
2023-01-06T01:22:45.364Z,5.82
2023-01-06T01:25:14.277Z,6.35
2023-01-06T01:27:42.044Z,6.55
2023-01-06T01:30:10.583Z,6.18
2023-01-06T01:32:38.214Z,6.28
2023-01-06T01:35:06.381Z,6.57
2023-01-06T01:37:33.925Z,6.63
2023-01-06T01:40:01.533Z,6.85
2023-01-06T01:42:30.992Z,6.97
2023-01-06T01:45:04.671Z,7.38
2023-01-06T01:47:42.627Z,7.38
2023-01-06T01:50:30.823Z,6.32
2023-01-06T01:53:04.389Z,7.07
2023-01-06T01:55:33.348Z,7.28
2023-01-06T01:58:05.239Z,7.35
2023-01-06T02:00:32.771Z,7.13
2023-01-06T02:03:00.572Z,6.57
2023-01-06T02:05:30.122Z,6.80
2023-01-06T02:07:59.652Z,6.75
2023-01-06T02:10:27.490Z,7.70
2023-01-06T02:12:58.974Z,7.30
2023-01-06T02:15:31.333Z,6.93
2023-01-06T02:18:11.710Z,7.68
2023-01-06T02:20:56.993Z,7.18
2023-01-06T02:23:54.182Z,6.72
2023-01-06T02:27:01.055Z,7.03
2023-01-06T02:29:53.954Z,6.28
2023-01-06T02:32:38.386Z,6.45
2023-01-06T02:35:23.130Z,7.03
2023-01-06T02:38:05.426Z,6.00
2023-01-06T02:40:50.766Z,6.63
2023-01-06T02:43:27.455Z,6.68
2023-01-06T02:46:07.500Z,6.20
2023-01-06T02:48:45.867Z,6.65
2023-01-06T02:51:19.469Z,5.90
2023-01-06T02:54:02.617Z,6.35
2023-01-06T02:56:35.647Z,7.20
2023-01-06T02:59:08.229Z,6.82
2023-01-06T03:01:39.783Z,7.63
2023-01-06T03:04:12.635Z,7.05
2023-01-06T03:06:45.073Z,7.93
2023-01-06T03:09:17.584Z,7.65
2023-01-06T03:11:50.582Z,7.75
2023-01-06T03:14:24.480Z,7.82
2023-01-06T03:16:52.158Z,8.52
2023-01-06T03:19:21.477Z,8.63
2023-01-06T03:21:51.937Z,8.02
2023-01-06T03:24:22.466Z,7.88
2023-01-06T03:26:52.384Z,9.02
2023-01-06T03:29:20.238Z,8.35
2023-01-06T03:31:57.744Z,8.98
2023-01-06T03:34:41.524Z,8.63
2023-01-06T03:37:15.832Z,8.13
2023-01-06T03:39:51.718Z,8.45
2023-01-06T03:42:45.445Z,9.70
2023-01-06T03:45:28.488Z,9.30
2023-01-06T03:48:06.307Z,8.93
2023-01-06T03:50:41.261Z,9.70
2023-01-06T03:53:20.157Z,9.02
2023-01-06T03:55:53.872Z,9.25
2023-01-06T03:58:21.910Z,8.98
2023-01-06T04:00:50.480Z,10.95
2023-01-06T04:03:18.132Z,11.38
2023-01-06T04:05:47.661Z,10.98
2023-01-06T04:08:15.778Z,12.77
2023-01-06T04:10:43.383Z,12.18
2023-01-06T04:13:10.035Z,12.73
2023-01-06T04:15:39.349Z,12.55
2023-01-06T04:18:09.333Z,12.25
2023-01-06T04:20:39.710Z,13.55
2023-01-06T04:23:19.097Z,12.38
2023-01-06T04:25:46.893Z,14.05
2023-01-06T04:28:24.766Z,12.93
2023-01-06T04:30:53.477Z,12.63
2023-01-06T04:33:21.052Z,12.98
2023-01-06T04:35:50.440Z,12.25
2023-01-06T04:38:22.830Z,14.52
2023-01-06T04:40:50.405Z,14.00
2023-01-06T04:43:18.047Z,13.68
2023-01-06T04:45:45.794Z,12.80
2023-01-06T04:48:13.799Z,12.90
2023-01-06T04:50:41.605Z,12.98
2023-01-06T04:53:11.863Z,13.25
2023-01-06T04:55:42.445Z,14.15
2023-01-06T04:58:10.030Z,14.18
2023-01-06T05:00:37.614Z,13.75
2023-01-06T05:03:05.205Z,13.68
2023-01-06T05:05:32.807Z,13.07
2023-01-06T05:08:00.367Z,13.95
2023-01-06T05:10:27.947Z,13.85
2023-01-06T05:12:56.777Z,12.77
2023-01-06T05:15:24.354Z,12.50
2023-01-06T05:17:51.915Z,12.38
2023-01-06T05:20:19.600Z,12.38
2023-01-06T05:22:47.174Z,12.50
2023-01-06T05:25:14.820Z,12.38
2023-01-06T05:27:42.359Z,12.50
2023-01-06T05:30:12.674Z,12.90
2023-01-06T05:32:40.375Z,11.57
2023-01-06T05:35:08.622Z,12.65
2023-01-06T05:37:36.653Z,24.75
2023-01-06T05:40:04.423Z,12.95
2023-01-06T05:42:31.906Z,13.40
2023-01-06T05:44:59.474Z,13.73
2023-01-06T05:47:28.309Z,12.52
2023-01-06T05:49:55.871Z,12.63
2023-01-06T05:52:23.608Z,12.68
2023-01-06T05:54:51.134Z,13.65
2023-01-06T05:57:18.730Z,12.77
2023-01-06T05:59:46.305Z,12.35
2023-01-06T06:02:13.984Z,13.00
2023-01-06T06:04:42.959Z,12.32
2023-01-06T06:07:10.559Z,12.50
2023-01-06T06:09:38.123Z,11.80
2023-01-06T06:12:06.993Z,12.05
2023-01-06T06:14:34.620Z,11.82
2023-01-06T06:17:02.178Z,12.43
2023-01-06T06:19:29.723Z,14.02
2023-01-06T06:21:58.768Z,13.20
2023-01-06T06:24:26.311Z,14.50
2023-01-06T06:26:53.832Z,13.40
2023-01-06T06:29:21.408Z,14.02
2023-01-06T06:31:49.011Z,13.85
2023-01-06T06:34:16.623Z,15.98
2023-01-06T06:36:44.496Z,13.95
2023-01-06T06:39:13.506Z,15.15
2023-01-06T06:41:41.166Z,14.95
2023-01-06T06:44:09.410Z,14.75
2023-01-06T06:46:37.041Z,13.68
2023-01-06T06:49:04.914Z,14.60
2023-01-06T06:51:32.691Z,14.13
2023-01-06T06:54:00.297Z,13.65
2023-01-06T06:56:29.234Z,14.25
2023-01-06T06:58:57.132Z,13.48
2023-01-06T07:01:24.982Z,13.90
2023-01-06T07:03:52.609Z,13.80
2023-01-06T07:06:21.884Z,15.30
2023-01-06T07:08:49.681Z,13.23
2023-01-06T07:11:17.623Z,12.35
2023-01-06T07:13:47.132Z,13.45
2023-01-06T07:16:14.786Z,12.77
2023-01-06T07:18:42.674Z,13.93
2023-01-06T07:21:10.406Z,13.68
2023-01-06T07:23:38.122Z,12.45
2023-01-06T07:26:06.118Z,12.50
2023-01-06T07:28:34.005Z,12.15
2023-01-06T07:31:03.068Z,11.27
2023-01-06T07:33:30.694Z,11.32
2023-01-06T07:35:58.864Z,12.05
2023-01-06T07:38:26.949Z,11.07
2023-01-06T07:40:54.701Z,11.95
2023-01-06T07:43:22.269Z,10.45
2023-01-06T07:45:50.358Z,11.00
2023-01-06T07:48:19.334Z,12.40
2023-01-06T07:50:46.934Z,11.18
2023-01-06T07:53:14.973Z,11.52
2023-01-06T07:55:42.772Z,11.48
2023-01-06T07:58:10.813Z,10.82
2023-01-06T08:00:38.779Z,11.18
2023-01-06T08:03:08.424Z,10.57
2023-01-06T08:06:51.013Z,12.43
2023-01-06T08:14:16.022Z,11.00
2023-01-06T08:16:43.643Z,9.75
2023-01-06T08:19:11.217Z,10.70
2023-01-06T08:21:38.807Z,10.13
2023-01-06T08:24:06.952Z,9.65
2023-01-06T08:26:34.516Z,9.45
2023-01-06T08:29:02.709Z,8.45
2023-01-06T08:31:31.673Z,9.23
2023-01-06T08:33:59.322Z,9.27
2023-01-06T08:36:27.569Z,8.27
2023-01-06T08:38:55.205Z,8.90
2023-01-06T08:41:23.073Z,8.20
2023-01-06T08:43:50.846Z,7.82
2023-01-06T08:46:21.215Z,7.90
2023-01-06T08:48:50.327Z,7.88
2023-01-06T08:51:20.633Z,8.80
2023-01-06T08:53:48.691Z,7.97
2023-01-06T08:56:18.574Z,9.15
2023-01-06T08:58:46.450Z,9.52
2023-01-06T09:01:18.425Z,8.00
2023-01-06T09:03:46.159Z,8.38
2023-01-06T09:06:16.487Z,8.00
2023-01-06T09:08:44.396Z,8.27
2023-01-06T09:11:13.228Z,8.35
2023-01-06T09:13:40.841Z,8.45
2023-01-06T09:16:10.053Z,8.43
2023-01-06T09:18:39.416Z,7.93
2023-01-06T09:21:07.178Z,8.70
2023-01-06T09:23:36.101Z,8.32
2023-01-06T09:26:03.680Z,7.60
2023-01-06T09:28:32.812Z,7.93
2023-01-06T09:31:01.162Z,7.07
2023-01-06T09:33:28.944Z,7.05
2023-01-06T09:35:56.706Z,6.82
2023-01-06T09:38:24.257Z,7.40
2023-01-06T09:41:05.802Z,6.93
2023-01-06T09:43:47.008Z,9.23
2023-01-06T09:46:17.505Z,7.25
2023-01-06T09:48:56.558Z,7.22
2023-01-06T09:51:25.957Z,6.85
2023-01-06T09:53:57.932Z,6.20
2023-01-06T09:56:27.593Z,6.80
2023-01-06T09:59:04.006Z,6.38
2023-01-06T10:01:37.666Z,5.72
2023-01-06T10:04:05.889Z,6.35
2023-01-06T10:06:38.414Z,5.55
2023-01-06T10:09:17.388Z,6.00
2023-01-06T10:12:01.564Z,6.03
2023-01-06T10:14:38.526Z,5.53
2023-01-06T10:17:35.620Z,5.78
2023-01-06T10:20:09.735Z,5.82
2023-01-06T10:22:48.117Z,5.68
2023-01-06T10:25:20.434Z,5.05
2023-01-06T10:27:51.386Z,5.20
2023-01-06T10:30:21.800Z,5.53
2023-01-06T10:32:51.013Z,5.18
2023-01-06T10:35:22.337Z,4.53
2023-01-06T10:37:51.641Z,5.15
2023-01-06T10:40:22.179Z,4.70
2023-01-06T10:42:56.424Z,5.93
2023-01-06T10:45:26.165Z,5.40
2023-01-06T10:47:54.433Z,5.35
2023-01-06T10:50:22.397Z,4.57
2023-01-06T10:52:50.424Z,5.72
2023-01-06T10:55:34.820Z,4.80
2023-01-06T10:58:12.220Z,4.30
2023-01-06T11:00:55.735Z,4.15
2023-01-06T11:03:33.329Z,4.15
2023-01-06T11:06:06.553Z,5.03
2023-01-06T11:08:34.821Z,5.10
2023-01-06T11:11:02.962Z,4.85
2023-01-06T11:13:34.910Z,3.20
2023-01-06T11:16:04.571Z,2.85
2023-01-06T11:18:33.805Z,2.80
2023-01-06T11:21:04.527Z,2.50
2023-01-06T11:23:32.981Z,2.72
2023-01-06T11:26:16.753Z,1.90
2023-01-06T11:28:48.186Z,1.98
2023-01-06T11:31:25.739Z,1.88
2023-01-06T11:33:55.983Z,1.60
2023-01-06T11:36:25.338Z,1.80
2023-01-06T11:38:58.518Z,1.67
2023-01-06T11:41:32.996Z,1.27
2023-01-06T11:44:09.410Z,1.42
2023-01-06T11:46:38.479Z,1.38
2023-01-06T11:49:15.308Z,1.20
2023-01-06T11:51:49.595Z,1.08
2023-01-06T11:54:27.099Z,1.17
2023-01-06T11:56:59.649Z,1.50
2023-01-06T11:59:34.527Z,1.13
2023-01-06T12:02:02.556Z,1.10
2023-01-06T12:04:37.005Z,1.40
2023-01-06T12:07:13.113Z,0.90
2023-01-06T12:09:45.403Z,0.98
2023-01-06T12:12:17.864Z,1.13
2023-01-06T12:14:46.885Z,1.10
2023-01-06T12:17:24.665Z,1.20
2023-01-06T12:19:56.096Z,1.00
2023-01-06T12:22:35.641Z,1.17
2023-01-06T12:25:04.485Z,1.80
2023-01-06T12:27:46.978Z,1.60
2023-01-06T12:30:22.843Z,1.00
2023-01-06T12:32:52.712Z,1.30
2023-01-06T12:35:23.695Z,1.17
2023-01-06T12:37:55.109Z,0.88
2023-01-06T12:40:28.850Z,1.00
2023-01-06T12:43:04.671Z,1.00
2023-01-06T12:45:43.454Z,1.17
2023-01-06T12:48:19.689Z,1.13
2023-01-06T12:50:52.345Z,0.93
2023-01-06T12:53:24.839Z,0.85
2023-01-06T12:56:05.804Z,1.02
2023-01-06T12:58:43.489Z,1.00
2023-01-06T13:01:19.614Z,0.88
2023-01-06T13:04:05.538Z,1.23
2023-01-06T13:06:45.809Z,1.00
2023-01-06T13:09:28.721Z,1.15
2023-01-06T13:12:39.914Z,1.60
2023-01-06T13:15:14.456Z,1.02
2023-01-06T13:17:51.443Z,1.13
2023-01-06T13:20:24.681Z,1.52
2023-01-06T13:23:04.108Z,1.20
2023-01-06T13:25:47.998Z,1.30
2023-01-06T13:28:25.956Z,1.25
2023-01-06T13:31:26.112Z,1.08
2023-01-06T13:34:23.406Z,1.10
2023-01-06T13:37:16.756Z,1.30
2023-01-06T13:39:48.062Z,1.08
2023-01-06T13:42:18.563Z,1.40
2023-01-06T13:44:48.359Z,1.92
2023-01-06T13:47:19.157Z,1.27
2023-01-06T13:49:48.438Z,1.42
2023-01-06T13:52:19.797Z,1.85
2023-01-06T13:55:03.234Z,0.88
2023-01-06T13:57:34.791Z,0.80
2023-01-06T14:00:24.943Z,1.55
2023-01-06T14:03:25.620Z,1.98
2023-01-06T14:05:56.448Z,1.40
2023-01-06T14:08:27.099Z,1.27
2023-01-06T14:11:33.095Z,1.25
2023-01-06T14:14:03.236Z,0.82
2023-01-06T14:16:41.984Z,1.30
2023-01-06T14:19:16.701Z,1.20
2023-01-06T14:21:48.314Z,1.15
2023-01-06T14:24:23.696Z,1.10
2023-01-06T14:26:55.778Z,1.20
2023-01-06T14:29:46.147Z,1.38
2023-01-06T14:32:47.438Z,1.38
2023-01-06T14:35:17.540Z,1.20
2023-01-06T14:37:50.591Z,0.98
2023-01-06T14:40:23.199Z,1.10
2023-01-06T14:42:52.209Z,1.10
2023-01-06T14:45:24.100Z,1.15
2023-01-06T14:47:53.802Z,1.08
2023-01-06T14:50:26.357Z,1.50
2023-01-06T14:53:01.083Z,1.30
2023-01-06T14:55:32.419Z,1.55
2023-01-06T14:58:30.824Z,1.33
2023-01-06T15:00:59.137Z,0.93
2023-01-06T15:03:28.034Z,1.05
2023-01-06T15:06:11.400Z,1.00
2023-01-06T15:08:40.426Z,0.95
2023-01-06T15:11:23.734Z,1.20
2023-01-06T15:13:51.653Z,1.25
2023-01-06T15:16:23.366Z,1.67
2023-01-06T15:18:53.284Z,1.38
2023-01-06T15:21:22.143Z,1.20
2023-01-06T15:23:52.719Z,1.25
2023-01-06T15:26:21.656Z,1.80
2023-01-06T15:29:02.978Z,1.70
2023-01-06T15:31:33.712Z,1.58
2023-01-06T15:34:04.135Z,1.65
2023-01-06T15:36:31.988Z,2.17
2023-01-06T15:39:03.316Z,2.20
2023-01-06T15:41:34.547Z,2.70
2023-01-06T15:44:03.945Z,2.80
2023-01-06T15:46:41.428Z,2.95
2023-01-06T15:49:23.186Z,2.00
2023-01-06T15:52:04.458Z,2.17
2023-01-06T15:54:35.870Z,2.20
2023-01-06T15:57:15.708Z,2.83
2023-01-06T15:59:54.202Z,2.53
2023-01-06T16:02:25.572Z,2.25
2023-01-06T16:04:54.294Z,2.55
2023-01-06T16:07:34.592Z,2.75
2023-01-06T16:10:03.955Z,2.72
2023-01-06T16:12:31.646Z,2.67
2023-01-06T16:14:59.144Z,4.05
2023-01-06T16:17:30.420Z,2.80
2023-01-06T16:20:02.778Z,2.42
2023-01-06T16:22:34.577Z,5.25
2023-01-06T16:25:07.355Z,4.78
2023-01-06T16:27:35.186Z,3.97
2023-01-06T16:30:19.983Z,3.78
2023-01-06T16:32:47.863Z,4.88
2023-01-06T16:35:17.020Z,4.70
2023-01-06T16:37:45.358Z,4.78
2023-01-06T16:40:16.274Z,4.20
2023-01-06T16:42:44.610Z,4.63
2023-01-06T16:45:22.642Z,4.32
2023-01-06T16:47:50.486Z,5.03
2023-01-06T16:50:21.806Z,5.18
2023-01-06T16:52:55.010Z,5.20
2023-01-06T16:55:24.047Z,5.07
2023-01-06T16:57:52.760Z,6.25
2023-01-06T17:00:23.232Z,4.80
2023-01-06T17:02:51.822Z,4.60
2023-01-06T17:05:22.734Z,4.20
2023-01-06T17:07:51.246Z,4.78
2023-01-06T17:10:21.831Z,3.92
2023-01-06T17:13:12.266Z,4.13
2023-01-06T17:15:40.155Z,5.28
2023-01-06T17:18:22.655Z,3.75
2023-01-06T17:20:51.966Z,3.67
2023-01-06T17:23:19.615Z,2.70
2023-01-06T17:25:47.422Z,5.95
2023-01-06T17:28:20.983Z,4.45
2023-01-06T17:30:49.497Z,4.60
2023-01-06T17:33:19.655Z,4.70
2023-01-06T17:35:56.529Z,5.63
2023-01-06T17:38:26.782Z,4.45
2023-01-06T17:40:56.607Z,4.53
2023-01-06T17:43:33.378Z,3.10
2023-01-06T17:46:03.210Z,3.10
2023-01-06T17:48:30.927Z,3.08
2023-01-06T17:50:59.391Z,4.00
2023-01-06T17:53:49.262Z,3.03
2023-01-06T17:56:17.375Z,2.83
2023-01-06T17:58:46.682Z,4.55
2023-01-06T18:01:20.642Z,4.45
2023-01-06T18:03:49.211Z,5.80
2023-01-06T18:06:26.304Z,6.43
2023-01-06T18:09:08.807Z,6.03
2023-01-06T18:11:38.913Z,5.22
2023-01-06T18:14:19.552Z,3.30
2023-01-06T18:16:48.429Z,3.30
2023-01-06T18:19:25.648Z,3.38
2023-01-06T18:21:53.838Z,2.80
2023-01-06T18:24:25.795Z,3.20
2023-01-06T18:26:56.910Z,3.38
2023-01-06T18:29:30.504Z,2.40
2023-01-06T18:32:19.809Z,3.10
2023-01-06T18:34:48.853Z,4.47
2023-01-06T18:37:17.618Z,3.47
2023-01-06T18:39:48.667Z,3.05
2023-01-06T18:42:24.867Z,3.67
2023-01-06T18:45:02.198Z,4.70
2023-01-06T18:47:32.108Z,4.95
2023-01-06T18:50:13.986Z,4.45
2023-01-06T18:52:45.207Z,3.92
2023-01-06T18:55:35.027Z,3.47
2023-01-06T18:58:08.740Z,3.53
2023-01-06T19:00:43.352Z,3.92
2023-01-06T19:03:30.865Z,3.47
2023-01-06T19:06:32.331Z,3.85
2023-01-06T19:09:02.237Z,2.95
2023-01-06T19:11:32.744Z,2.95
2023-01-06T19:14:02.177Z,3.33
2023-01-06T19:16:37.195Z,3.05
2023-01-06T19:19:22.732Z,2.75
2023-01-06T19:21:51.163Z,3.78
2023-01-06T19:24:44.055Z,6.82
2023-01-06T19:27:28.398Z,5.72
2023-01-06T19:30:01.585Z,4.47
2023-01-06T19:32:36.772Z,4.88
2023-01-06T19:35:16.636Z,5.30
2023-01-06T19:37:44.356Z,5.50
2023-01-06T19:40:26.176Z,4.97
2023-01-06T19:42:54.195Z,5.57
2023-01-06T19:45:29.620Z,5.13
2023-01-06T19:47:59.790Z,4.95
2023-01-06T19:50:27.450Z,6.60
2023-01-06T19:52:58.510Z,7.40
2023-01-06T19:55:28.443Z,7.28
2023-01-06T19:57:58.232Z,6.28
2023-01-06T20:00:29.481Z,5.53
2023-01-06T20:03:01.729Z,5.70
2023-01-06T20:05:31.613Z,5.22
2023-01-06T20:07:59.509Z,4.88
2023-01-06T20:10:27.338Z,4.38
2023-01-06T20:12:55.118Z,4.88
2023-01-06T20:15:22.933Z,3.42
2023-01-06T20:17:50.696Z,4.22
2023-01-06T20:20:19.605Z,3.22
2023-01-06T20:22:47.294Z,3.67
2023-01-06T20:25:15.149Z,3.38
2023-01-06T20:27:42.982Z,2.50
2023-01-06T20:30:11.644Z,3.15
2023-01-06T20:32:39.275Z,2.70
2023-01-06T20:35:09.270Z,2.45
2023-01-06T20:37:39.575Z,2.33
2023-01-06T20:40:09.040Z,2.35
2023-01-06T20:42:36.716Z,2.55
2023-01-06T20:45:05.165Z,3.33
2023-01-06T20:47:32.694Z,2.38
2023-01-06T20:50:00.333Z,3.05
2023-01-06T20:52:28.010Z,3.45
2023-01-06T20:54:57.009Z,3.13
2023-01-06T20:57:25.245Z,3.70
2023-01-06T20:59:52.929Z,3.78
2023-01-06T21:02:20.651Z,4.32
2023-01-06T21:04:48.255Z,4.82
2023-01-06T21:07:15.753Z,5.22
2023-01-06T21:09:43.305Z,5.50
2023-01-06T21:12:12.187Z,5.20
2023-01-06T21:14:39.745Z,5.72
2023-01-06T21:17:07.593Z,5.50
2023-01-06T21:19:35.201Z,5.05
2023-01-06T21:22:02.855Z,5.30
2023-01-06T21:24:30.469Z,4.95
2023-01-06T21:26:58.054Z,3.75
2023-01-06T21:29:27.468Z,4.20
2023-01-06T21:31:55.124Z,4.13
2023-01-06T21:34:22.883Z,4.22
2023-01-06T21:36:50.601Z,3.95
2023-01-06T21:39:18.257Z,4.10
2023-01-06T21:42:03.513Z,3.28
2023-01-06T21:44:32.796Z,3.67
2023-01-06T21:47:00.654Z,3.85
2023-01-06T21:49:28.345Z,3.38
2023-01-06T21:51:57.567Z,3.80
2023-01-06T21:54:25.582Z,3.10
2023-01-06T21:56:53.223Z,3.35
2023-01-06T21:59:20.924Z,4.07
2023-01-06T22:01:49.877Z,2.88
2023-01-06T22:04:17.490Z,2.60
2023-01-06T22:06:45.211Z,3.25
2023-01-06T22:09:15.355Z,3.30
2023-01-06T22:11:44.595Z,3.05
2023-01-06T22:14:12.601Z,3.30
2023-01-06T22:16:41.715Z,3.90
2023-01-06T22:19:13.176Z,3.72
2023-01-06T22:21:42.262Z,2.92
2023-01-06T22:24:12.827Z,2.90
2023-01-06T22:26:40.395Z,3.38
2023-01-06T22:29:08.270Z,3.45
2023-01-06T22:31:36.139Z,3.50
2023-01-06T22:34:03.904Z,3.08
2023-01-06T22:36:32.978Z,3.25
2023-01-06T22:39:00.694Z,3.53
2023-01-06T22:41:28.326Z,4.32
2023-01-06T22:43:58.405Z,4.32
2023-01-06T22:46:27.358Z,3.38
2023-01-06T22:48:54.990Z,4.13
2023-01-06T22:51:22.550Z,4.55
2023-01-06T22:53:51.945Z,3.75
2023-01-06T22:56:19.713Z,4.05
2023-01-06T22:58:47.429Z,3.67
2023-01-06T23:01:15.167Z,3.63
2023-01-06T23:03:43.035Z,3.83
2023-01-06T23:06:12.209Z,3.72
2023-01-06T23:08:50.932Z,3.72
2023-01-06T23:11:28.302Z,3.22
2023-01-06T23:13:57.329Z,3.85
2023-01-06T23:16:26.988Z,4.25
2023-01-06T23:18:55.283Z,4.10
2023-01-06T23:21:24.593Z,3.70
2023-01-06T23:23:53.716Z,3.60
2023-01-06T23:26:25.247Z,3.60
2023-01-06T23:28:54.785Z,3.95
2023-01-06T23:31:24.137Z,4.05
2023-01-06T23:33:53.277Z,4.32
2023-01-06T23:36:21.406Z,4.18
2023-01-06T23:38:51.957Z,4.53
2023-01-06T23:41:21.617Z,3.97
2023-01-06T23:43:49.904Z,4.35
2023-01-06T23:46:20.475Z,4.63
2023-01-06T23:48:48.673Z,4.32
2023-01-06T23:51:17.047Z,4.55
2023-01-06T23:53:45.482Z,4.47
2023-01-06T23:56:15.449Z,4.97
2023-01-06T23:58:46.012Z,4.95
